Ione, California
Current Conditions -  °F | °C
As of 3:46 AM on Wednesday 28 Jan 2015 (Local Time) from KMHR Reporting Station
Haze Haze  
Wind Chill: 43°   Ceiling: Unl
Heat Index: 46°   Visibility: 5mi
Dew Point: 46°   Wind: 7mph
Humidity: 100%   Direction: 270°W
Pressure: 30.26"   Gusts: NA
Location:  38.35°N, 120.93°W
Report Text: KMHR 281146Z 27006KT 5SM BR FEW150 08/08 A3026
Loading
Personal Weather Stations






























Interactive Weather Map New forecast layout! Learn more

10-Day Weather Forecast

Advertisements
Track Severe Weather on mobile